Time,TemperatureF,DewpointF,PressureIn,WindDirection,WindDirectionDegrees,WindSpeedMPH,WindSpeedGustMPH,Humidity,HourlyPrecipIn,Conditions,Clouds,dailyrainin,SoftwareType,DateUTC
2013-06-01 00:02:00,44.3,38.0,30.20,SSE,159,0.0,0.0,77,0.00,,,0.00,weatherlink.com 1.10,2013-06-01 07:02:00,
2013-06-01 00:17:00,43.9,37.0,30.20,SSE,159,0.0,0.0,77,0.00,,,0.00,weatherlink.com 1.10,2013-06-01 07:17:00,
2013-06-01 00:32:00,43.3,37.0,30.20,SSE,159,0.0,0.0,78,0.00,,,0.00,weatherlink.com 1.10,2013-06-01 07:32:00,
2013-06-01 00:47:00,42.9,36.0,30.19,SSE,159,0.0,0.0,78,0.00,,,0.00,weatherlink.com 1.10,2013-06-01 07:47:00,
2013-06-01 01:02:00,42.4,37.0,30.19,SSE,159,0.0,0.0,80,0.00,,,0.00,weatherlink.com 1.10,2013-06-01 08:02:00,
2013-06-01 01:17:00,41.7,36.0,30.20,SSE,159,0.0,0.0,81,0.00,,,0.00,weatherlink.com 1.10,2013-06-01 08:17:00,
2013-06-01 01:32:00,41.0,36.0,30.19,SSE,159,0.0,0.0,82,0.00,,,0.00,weatherlink.com 1.10,2013-06-01 08:32:00,
2013-06-01 01:48:00,40.3,35.0,30.19,SSE,159,0.0,0.0,82,0.00,,,0.00,weatherlink.com 1.10,2013-06-01 08:48:00,
2013-06-01 02:03:00,39.7,35.0,30.19,SSE,159,0.0,0.0,83,0.00,,,0.00,weatherlink.com 1.10,2013-06-01 09:03:00,
2013-06-01 02:18:00,38.9,35.0,30.19,SSE,159,0.0,0.0,85,0.00,,,0.00,weatherlink.com 1.10,2013-06-01 09:18:00,
2013-06-01 02:33:00,38.2,34.0,30.19,SSE,159,0.0,0.0,85,0.00,,,0.00,weatherlink.com 1.10,2013-06-01 09:33:00,
2013-06-01 02:48:00,37.7,34.0,30.18,SSE,159,0.0,0.0,86,0.00,,,0.00,weatherlink.com 1.10,2013-06-01 09:48:00,
2013-06-01 03:03:00,37.1,34.0,30.18,SSE,159,0.0,0.0,88,0.00,,,0.00,weatherlink.com 1.10,2013-06-01 10:03:00,
2013-06-01 03:18:00,36.9,34.0,30.18,SSE,159,0.0,0.0,89,0.00,,,0.00,weatherlink.com 1.10,2013-06-01 10:18:00,
2013-06-01 03:33:00,36.5,33.0,30.18,SSE,160,0.0,0.0,88,0.00,,,0.00,weatherlink.com 1.10,2013-06-01 10:33:00,
2013-06-01 03:48:00,35.8,33.0,30.18,SSE,159,0.0,0.0,88,0.00,,,0.00,weatherlink.com 1.10,2013-06-01 10:48:00,
2013-06-01 04:03:00,35.5,33.0,30.18,SSE,160,0.0,0.0,91,0.00,,,0.00,weatherlink.com 1.10,2013-06-01 11:03:00,
2013-06-01 04:18:00,35.2,33.0,30.18,SSE,159,0.0,0.0,90,0.00,,,0.00,weatherlink.com 1.10,2013-06-01 11:18:00,
2013-06-01 04:33:00,34.8,32.0,30.18,SSE,159,0.0,0.0,89,0.00,,,0.00,weatherlink.com 1.10,2013-06-01 11:33:00,
2013-06-01 04:48:00,34.3,31.0,30.18,SSE,159,0.0,0.0,89,0.00,,,0.00,weatherlink.com 1.10,2013-06-01 11:48:00,
2013-06-01 05:03:00,33.8,31.0,30.18,SSE,159,0.0,0.0,89,0.00,,,0.00,weatherlink.com 1.10,2013-06-01 12:03:00,
2013-06-01 05:18:00,33.5,31.0,30.18,SSE,159,0.0,0.0,90,0.00,,,0.00,weatherlink.com 1.10,2013-06-01 12:18:00,
2013-06-01 05:33:00,33.2,31.0,30.18,SSE,159,0.0,0.0,90,0.00,,,0.00,weatherlink.com 1.10,2013-06-01 12:33:00,
2013-06-01 05:48:00,32.9,30.0,30.18,SSE,159,0.0,0.0,90,0.00,,,0.00,weatherlink.com 1.10,2013-06-01 12:48:00,
2013-06-01 06:03:00,33.0,31.0,30.18,SSE,159,0.0,0.0,91,0.00,,,0.00,weatherlink.com 1.10,2013-06-01 13:03:00,
2013-06-01 06:18:00,34.1,33.0,30.17,SSE,159,1.0,2.0,95,0.00,,,0.00,weatherlink.com 1.10,2013-06-01 13:18:00,
2013-06-01 06:33:00,36.9,35.0,30.17,SSE,150,0.0,2.0,91,0.00,,,0.00,weatherlink.com 1.10,2013-06-01 13:33:00,
2013-06-01 06:48:00,37.7,36.0,30.17,SSE,152,0.0,2.0,92,0.00,,,0.00,weatherlink.com 1.10,2013-06-01 13:48:00,
2013-06-01 07:03:00,38.6,36.0,30.17,SE,128,1.0,2.0,91,0.00,,,0.00,weatherlink.com 1.10,2013-06-01 14:03:00,
2013-06-01 07:18:00,41.0,37.0,30.16,ESE,115,0.0,2.0,87,0.00,,,0.00,weatherlink.com 1.10,2013-06-01 14:18:00,
2013-06-01 07:33:00,44.1,39.0,30.16,East,94,1.0,3.0,82,0.00,,,0.00,weatherlink.com 1.10,2013-06-01 14:33:00,
2013-06-01 07:48:00,46.3,40.0,30.16,SSW,200,3.0,3.0,78,0.00,,,0.00,weatherlink.com 1.10,2013-06-01 14:48:00,
2013-06-01 08:03:00,47.9,40.0,30.16,East,90,2.0,4.0,75,0.00,,,0.00,weatherlink.com 1.10,2013-06-01 15:03:00,
2013-06-01 08:19:00,49.7,42.0,30.16,East,99,1.0,4.0,74,0.00,,,0.00,weatherlink.com 1.10,2013-06-01 15:19:00,
2013-06-01 08:34:00,50.8,42.0,30.16,ENE,75,1.0,3.0,71,0.00,,,0.00,weatherlink.com 1.10,2013-06-01 15:34:00,
2013-06-01 08:49:00,51.7,43.0,30.16,East,101,2.0,2.0,72,0.00,,,0.00,weatherlink.com 1.10,2013-06-01 15:49:00,
2013-06-01 09:04:00,53.1,43.0,30.16,ESE,111,0.0,3.0,69,0.00,,,0.00,weatherlink.com 1.10,2013-06-01 16:04:00,
2013-06-01 09:19:00,54.1,44.0,30.15,East,101,1.0,2.0,68,0.00,,,0.00,weatherlink.com 1.10,2013-06-01 16:19:00,
2013-06-01 09:34:00,55.7,44.0,30.15,SSE,167,0.0,2.0,64,0.00,,,0.00,weatherlink.com 1.10,2013-06-01 16:34:00,
2013-06-01 09:49:00,57.3,42.0,30.14,SE,132,0.0,2.0,56,0.00,,,0.00,weatherlink.com 1.10,2013-06-01 16:49:00,
2013-06-01 10:04:00,58.9,41.0,30.14,SSE,158,0.0,4.0,51,0.00,,,0.00,weatherlink.com 1.10,2013-06-01 17:04:00,
2013-06-01 10:19:00,60.9,37.0,30.13,ESE,115,0.0,2.0,42,0.00,,,0.00,weatherlink.com 1.10,2013-06-01 17:19:00,
2013-06-01 10:34:00,62.7,38.0,30.12,SE,132,0.0,3.0,41,0.00,,,0.00,weatherlink.com 1.10,2013-06-01 17:34:00,
2013-06-01 10:49:00,65.5,41.0,30.12,SSE,158,0.0,2.0,41,0.00,,,0.00,weatherlink.com 1.10,2013-06-01 17:49:00,
2013-06-01 11:04:00,66.5,43.0,30.11,SSE,158,1.0,3.0,42,0.00,,,0.00,weatherlink.com 1.10,2013-06-01 18:04:00,
2013-06-01 11:19:00,68.0,39.0,30.11,SSE,160,0.0,3.0,35,0.00,,,0.00,weatherlink.com 1.10,2013-06-01 18:19:00,
2013-06-01 11:34:00,67.5,38.0,30.11,SE,146,1.0,5.0,34,0.00,,,0.00,weatherlink.com 1.10,2013-06-01 18:34:00,
2013-06-01 11:49:00,68.1,37.0,30.10,SSE,162,0.0,3.0,32,0.00,,,0.00,weatherlink.com 1.10,2013-06-01 18:49:00,
2013-06-01 12:04:00,68.7,41.0,30.09,SE,141,0.0,2.0,37,0.00,,,0.00,weatherlink.com 1.10,2013-06-01 19:04:00,
2013-06-01 12:19:00,69.8,35.0,30.09,SSE,148,1.0,6.0,28,0.00,,,0.00,weatherlink.com 1.10,2013-06-01 19:19:00,
2013-06-01 12:35:00,71.4,41.0,30.08,SSE,165,1.0,6.0,33,0.00,,,0.00,weatherlink.com 1.10,2013-06-01 19:35:00,
2013-06-01 12:50:00,70.2,39.0,30.07,ESE,117,1.0,3.0,32,0.00,,,0.00,weatherlink.com 1.10,2013-06-01 19:50:00,
2013-06-01 13:05:00,69.7,36.0,30.06,SSE,150,0.0,4.0,29,0.00,,,0.00,weatherlink.com 1.10,2013-06-01 20:05:00,
2013-06-01 13:20:00,71.1,37.0,30.05,ESE,105,0.0,5.0,29,0.00,,,0.00,weatherlink.com 1.10,2013-06-01 20:20:00,
2013-06-01 13:35:00,71.0,36.0,30.05,SE,146,0.0,6.0,28,0.00,,,0.00,weatherlink.com 1.10,2013-06-01 20:35:00,
2013-06-01 13:50:00,71.4,37.0,30.04,East,93,3.0,6.0,28,0.00,,,0.00,weatherlink.com 1.10,2013-06-01 20:50:00,
2013-06-01 14:05:00,72.4,38.0,30.04,SE,139,0.0,4.0,29,0.00,,,0.00,weatherlink.com 1.10,2013-06-01 21:05:00,
2013-06-01 14:20:00,72.4,38.0,30.04,SE,127,1.0,7.0,29,0.00,,,0.00,weatherlink.com 1.10,2013-06-01 21:20:00,
2013-06-01 14:35:00,75.2,41.0,30.03,South,170,0.0,5.0,29,0.00,,,0.00,weatherlink.com 1.10,2013-06-01 21:35:00,
2013-06-01 14:50:00,75.4,42.0,30.03,SSE,151,1.0,2.0,30,0.00,,,0.00,weatherlink.com 1.10,2013-06-01 21:50:00,
2013-06-01 15:05:00,75.0,36.0,30.02,ESE,104,3.0,6.0,24,0.00,,,0.00,weatherlink.com 1.10,2013-06-01 22:05:00,
2013-06-01 15:20:00,73.9,36.0,30.02,East,86,2.0,6.0,25,0.00,,,0.00,weatherlink.com 1.10,2013-06-01 22:20:00,
2013-06-01 15:35:00,74.3,35.0,30.02,ESE,103,0.0,5.0,24,0.00,,,0.00,weatherlink.com 1.10,2013-06-01 22:35:00,
2013-06-01 15:50:00,73.9,38.0,30.02,ESE,123,1.0,5.0,27,0.00,,,0.00,weatherlink.com 1.10,2013-06-01 22:50:00,
2013-06-01 16:05:00,74.3,39.0,30.01,SW,219,4.0,6.0,28,0.00,,,0.00,weatherlink.com 1.10,2013-06-01 23:05:00,
2013-06-01 16:20:00,73.5,37.0,30.01,ESE,113,2.0,6.0,27,0.00,,,0.00,weatherlink.com 1.10,2013-06-01 23:20:00,
2013-06-01 16:35:00,73.0,39.0,30.01,SSE,148,1.0,5.0,29,0.00,,,0.00,weatherlink.com 1.10,2013-06-01 23:35:00,
2013-06-01 16:50:00,72.6,39.0,30.01,SE,127,3.0,5.0,29,0.00,,,0.00,weatherlink.com 1.10,2013-06-01 23:50:00,
2013-06-01 17:05:00,71.7,39.0,30.00,ESE,117,1.0,5.0,31,0.00,,,0.00,weatherlink.com 1.10,2013-06-02 00:05:00,
2013-06-01 17:20:00,71.2,41.0,30.00,East,90,2.0,6.0,33,0.00,,,0.00,weatherlink.com 1.10,2013-06-02 00:20:00,
2013-06-01 17:35:00,70.5,39.0,30.00,SE,131,0.0,8.0,32,0.00,,,0.00,weatherlink.com 1.10,2013-06-02 00:35:00,
2013-06-01 17:50:00,70.5,39.0,30.00,ESE,122,0.0,7.0,32,0.00,,,0.00,weatherlink.com 1.10,2013-06-02 00:50:00,
2013-06-01 18:05:00,70.0,40.0,30.00,SSE,151,0.0,8.0,34,0.00,,,0.00,weatherlink.com 1.10,2013-06-02 01:05:00,
2013-06-01 18:20:00,69.2,40.0,30.00,SE,127,2.0,6.0,34,0.00,,,0.00,weatherlink.com 1.10,2013-06-02 01:20:00,
2013-06-01 18:35:00,68.6,41.0,30.00,ESE,108,1.0,5.0,37,0.00,,,0.00,weatherlink.com 1.10,2013-06-02 01:35:00,
2013-06-01 18:50:00,68.3,43.0,30.00,ESE,110,3.0,3.0,40,0.00,,,0.00,weatherlink.com 1.10,2013-06-02 01:50:00,
2013-06-01 19:05:00,67.2,41.0,30.00,SE,131,2.0,3.0,39,0.00,,,0.00,weatherlink.com 1.10,2013-06-02 02:05:00,
2013-06-01 19:20:00,66.8,42.0,30.00,SE,125,1.0,4.0,40,0.00,,,0.00,weatherlink.com 1.10,2013-06-02 02:20:00,
2013-06-01 19:35:00,66.0,42.0,30.00,SE,134,0.0,3.0,42,0.00,,,0.00,weatherlink.com 1.10,2013-06-02 02:35:00,
2013-06-01 19:50:00,64.7,41.0,30.00,SE,145,0.0,1.0,42,0.00,,,0.00,weatherlink.com 1.10,2013-06-02 02:50:00,
2013-06-01 20:05:00,62.7,41.0,30.00,ESE,113,1.0,2.0,46,0.00,,,0.00,weatherlink.com 1.10,2013-06-02 03:05:00,
2013-06-01 20:20:00,61.7,42.0,30.00,SE,135,0.0,1.0,48,0.00,,,0.00,weatherlink.com 1.10,2013-06-02 03:20:00,
2013-06-01 20:35:00,59.9,43.0,30.00,SE,135,0.0,0.0,54,0.00,,,0.00,weatherlink.com 1.10,2013-06-02 03:35:00,
2013-06-01 20:50:00,58.0,42.0,30.00,SE,136,0.0,0.0,56,0.00,,,0.00,weatherlink.com 1.10,2013-06-02 03:50:00,
2013-06-01 21:05:00,56.7,42.0,30.01,SE,137,0.0,0.0,59,0.00,,,0.00,weatherlink.com 1.10,2013-06-02 04:05:00,
2013-06-01 21:20:00,55.8,43.0,30.02,SE,144,0.0,0.0,62,0.00,,,0.00,weatherlink.com 1.10,2013-06-02 04:20:00,
2013-06-01 21:35:00,55.2,44.0,30.02,SE,143,0.0,1.0,66,0.00,,,0.00,weatherlink.com 1.10,2013-06-02 04:35:00,
2013-06-01 21:50:00,54.3,43.0,30.02,SE,143,0.0,0.0,67,0.00,,,0.00,weatherlink.com 1.10,2013-06-02 04:50:00,
2013-06-01 22:05:00,53.3,43.0,30.02,SE,143,0.0,0.0,68,0.00,,,0.00,weatherlink.com 1.10,2013-06-02 05:05:00,
2013-06-01 22:20:00,52.1,43.0,30.02,SE,144,0.0,0.0,70,0.00,,,0.00,weatherlink.com 1.10,2013-06-02 05:20:00,
2013-06-01 22:35:00,50.7,43.0,30.02,SE,143,0.0,0.0,74,0.00,,,0.00,weatherlink.com 1.10,2013-06-02 05:35:00,
2013-06-01 22:50:00,49.7,42.0,30.02,SE,143,0.0,0.0,74,0.00,,,0.00,weatherlink.com 1.10,2013-06-02 05:50:00,
2013-06-01 23:05:00,48.8,42.0,30.02,SE,143,0.0,0.0,77,0.00,,,0.00,weatherlink.com 1.10,2013-06-02 06:05:00,
2013-06-01 23:20:00,48.1,42.0,30.02,SE,143,0.0,0.0,79,0.00,,,0.00,weatherlink.com 1.10,2013-06-02 06:20:00,
2013-06-01 23:35:00,47.2,41.0,30.02,SE,143,0.0,0.0,80,0.00,,,0.00,weatherlink.com 1.10,2013-06-02 06:35:00,
2013-06-01 23:50:00,46.3,41.0,30.02,SE,143,0.0,0.0,81,0.00,,,0.00,weatherlink.com 1.10,2013-06-02 06:50:00,